createdAt,value
2019-04-14T00:02:14.121Z,101288.39
2019-04-14T00:04:26.923Z,101289.27
2019-04-14T00:06:37.601Z,101289.80
2019-04-14T00:08:45.867Z,101291.10
2019-04-14T00:10:53.663Z,101288.05
2019-04-14T00:13:01.041Z,101291.58
2019-04-14T00:15:21.102Z,101283.28
2019-04-14T00:17:20.248Z,101289.48
2019-04-14T00:19:28.367Z,101295.50
2019-04-14T00:21:36.772Z,101287.59
2019-04-14T00:23:45.531Z,101292.83
2019-04-14T00:25:54.328Z,101295.14
2019-04-14T00:28:02.954Z,101291.27
2019-04-14T00:30:12.822Z,101294.67
2019-04-14T00:32:20.534Z,101287.81
2019-04-14T00:34:54.981Z,101299.59
2019-04-14T00:37:07.779Z,101298.64
2019-04-14T00:39:20.496Z,101298.28
2019-04-14T00:41:48.888Z,101300.14
2019-04-14T00:44:03.652Z,101299.12
2019-04-14T00:46:14.951Z,101300.07
2019-04-14T00:48:25.860Z,101305.02
2019-04-14T00:50:34.186Z,101302.88
2019-04-14T00:52:41.608Z,101306.30
2019-04-14T00:54:50.039Z,101302.00
2019-04-14T00:56:58.506Z,101299.89
2019-04-14T00:59:07.107Z,101299.48
2019-04-14T01:01:15.470Z,101304.36
2019-04-14T01:03:23.066Z,101308.69
2019-04-14T01:05:32.862Z,101296.98
2019-04-14T01:07:39.552Z,101302.23
2019-04-14T01:09:46.895Z,101302.69
2019-04-14T01:11:55.223Z,101309.25
2019-04-14T01:14:03.732Z,101300.51
2019-04-14T01:16:17.562Z,101302.33
2019-04-14T01:18:21.751Z,101305.84
2019-04-14T01:20:29.643Z,101302.03
2019-04-14T01:22:38.081Z,101304.20
2019-04-14T01:24:46.757Z,101308.58
2019-04-14T01:26:55.044Z,101311.96
2019-04-14T01:29:03.619Z,101306.42
2019-04-14T01:31:11.978Z,101311.23
2019-04-14T01:33:20.526Z,101313.91
2019-04-14T01:35:29.220Z,101305.22
2019-04-14T01:37:37.600Z,101310.39
2019-04-14T01:39:46.041Z,101309.62
2019-04-14T01:41:54.350Z,101310.53
2019-04-14T01:44:02.479Z,101314.85
2019-04-14T01:46:17.772Z,101307.99
2019-04-14T01:48:19.308Z,101307.16
2019-04-14T01:50:56.945Z,101308.52
2019-04-14T01:53:09.713Z,101305.48
2019-04-14T01:55:26.641Z,101312.41
2019-04-14T01:57:39.890Z,101309.31
2019-04-14T01:59:48.254Z,101299.50
2019-04-14T02:01:56.562Z,101305.19
2019-04-14T02:04:04.960Z,101303.04
2019-04-14T02:06:13.544Z,101298.66
2019-04-14T02:08:21.974Z,101304.35
2019-04-14T02:10:30.492Z,101304.73
2019-04-14T02:12:38.778Z,101304.05
2019-04-14T02:14:47.324Z,101311.47
2019-04-14T02:16:57.849Z,101304.52
2019-04-14T02:19:04.618Z,101309.32
2019-04-14T02:21:12.848Z,101311.06
2019-04-14T02:23:21.481Z,101306.88
2019-04-14T02:25:29.587Z,101306.38
2019-04-14T02:27:38.167Z,101306.84
2019-04-14T02:29:45.700Z,101307.46
2019-04-14T02:32:30.113Z,101312.70
2019-04-14T02:34:34.735Z,101315.78
2019-04-14T02:36:40.234Z,101316.57
2019-04-14T02:43:03.974Z,101314.23
2019-04-14T02:45:19.872Z,101315.49
2019-04-14T02:49:38.552Z,101318.58
2019-04-14T02:51:43.963Z,101322.86
2019-04-14T02:53:57.624Z,101321.23
2019-04-14T02:58:15.713Z,101321.09
2019-04-14T03:00:24.588Z,101321.48
2019-04-14T03:02:30.346Z,101320.61
2019-04-14T03:04:39.274Z,101318.94
2019-04-14T03:06:41.213Z,101316.95
2019-04-14T03:09:04.488Z,101322.18
2019-04-14T03:11:03.041Z,101328.61
2019-04-14T03:13:15.104Z,101334.84
2019-04-14T03:20:32.503Z,101332.25
2019-04-14T03:24:50.513Z,101346.28
2019-04-14T03:27:49.960Z,101342.07
2019-04-14T03:29:43.079Z,101338.66
2019-04-14T03:36:44.862Z,101343.62
2019-04-14T03:38:26.663Z,101338.45
2019-04-14T03:40:35.703Z,101342.91
2019-04-14T03:42:47.197Z,101347.73
2019-04-14T03:46:58.984Z,101350.38
2019-04-14T03:49:08.086Z,101353.86
2019-04-14T03:55:20.585Z,101353.45
2019-04-14T03:57:17.188Z,101361.35
2019-04-14T03:59:26.158Z,101359.66
2019-04-14T04:01:34.536Z,101367.48
2019-04-14T04:03:42.055Z,101359.66
2019-04-14T04:05:49.971Z,101352.77
2019-04-14T04:07:58.088Z,101357.59
2019-04-14T04:10:14.006Z,101356.30
2019-04-14T04:12:22.467Z,101357.26
2019-04-14T04:14:31.244Z,101355.50
2019-04-14T04:16:57.315Z,101349.88
2019-04-14T04:19:17.063Z,101361.28
2019-04-14T04:21:42.343Z,101366.45
2019-04-14T04:23:59.675Z,101360.67
2019-04-14T04:26:13.311Z,101360.88
2019-04-14T04:28:45.335Z,101360.41
2019-04-14T04:31:24.234Z,101360.92
2019-04-14T04:34:03.342Z,101372.25
2019-04-14T04:36:18.289Z,101369.64
2019-04-14T04:38:31.222Z,101368.30
2019-04-14T04:40:39.735Z,101367.44
2019-04-14T04:42:48.320Z,101372.66
2019-04-14T04:44:55.957Z,101377.06
2019-04-14T04:47:03.530Z,101376.58
2019-04-14T04:49:18.373Z,101372.25
2019-04-14T04:51:20.980Z,101370.84
2019-04-14T04:53:28.780Z,101379.13
2019-04-14T04:55:37.346Z,101377.83
2019-04-14T04:57:45.912Z,101378.77
2019-04-14T04:59:53.940Z,101381.70
2019-04-14T05:02:02.649Z,101383.05
2019-04-14T05:04:11.073Z,101388.52
2019-04-14T05:07:01.439Z,101391.14
2019-04-14T05:09:17.188Z,101392.44
2019-04-14T05:11:33.683Z,101392.78
2019-04-14T05:13:42.505Z,101398.02
2019-04-14T05:16:00.160Z,101396.21
2019-04-14T05:18:09.177Z,101399.56
2019-04-14T05:20:16.674Z,101393.48
2019-04-14T05:22:24.717Z,101399.52
2019-04-14T05:24:33.237Z,101402.16
2019-04-14T05:26:41.739Z,101399.50
2019-04-14T05:28:49.215Z,101399.84
2019-04-14T05:30:58.940Z,101399.78
2019-04-14T05:33:07.489Z,101403.69
2019-04-14T05:35:16.017Z,101408.36
2019-04-14T05:37:24.769Z,101412.26
2019-04-14T05:39:32.945Z,101412.61
2019-04-14T05:41:47.991Z,101407.78
2019-04-14T05:43:54.861Z,101416.84
2019-04-14T05:45:59.108Z,101413.33
2019-04-14T05:48:07.466Z,101412.86
2019-04-14T05:50:15.885Z,101410.97
2019-04-14T05:52:23.343Z,101416.18
2019-04-14T05:54:31.693Z,101416.91
2019-04-14T05:56:40.638Z,101418.16
2019-04-14T05:58:49.241Z,101420.37
2019-04-14T06:00:57.912Z,101414.23
2019-04-14T06:03:05.958Z,101421.92
2019-04-14T06:05:14.522Z,101422.56
2019-04-14T06:07:22.211Z,101427.33
2019-04-14T06:09:31.319Z,101422.02
2019-04-14T06:11:38.858Z,101424.13
2019-04-14T06:13:46.359Z,101425.77
2019-04-14T06:15:53.825Z,101421.77
2019-04-14T06:18:01.216Z,101422.16
2019-04-14T06:20:08.800Z,101429.23
2019-04-14T06:22:16.188Z,101429.17
2019-04-14T06:24:23.644Z,101431.59
2019-04-14T06:26:31.139Z,101435.89
2019-04-14T06:28:38.680Z,101422.99
2019-04-14T06:31:03.736Z,101435.62
2019-04-14T06:33:25.926Z,101434.55
2019-04-14T06:35:54.896Z,101435.35
2019-04-14T06:38:05.927Z,101437.08
2019-04-14T06:40:13.811Z,101437.08
2019-04-14T06:42:21.272Z,101447.72
2019-04-14T06:44:28.719Z,101435.75
2019-04-14T06:46:36.353Z,101436.46
2019-04-14T06:48:43.787Z,101449.09
2019-04-14T06:50:51.182Z,101443.48
2019-04-14T06:52:58.683Z,101440.44
2019-04-14T06:55:06.201Z,101447.16
2019-04-14T06:57:13.602Z,101453.07
2019-04-14T06:59:21.120Z,101448.16
2019-04-14T07:01:28.549Z,101452.42
2019-04-14T07:03:35.939Z,101447.22
2019-04-14T07:05:43.479Z,101449.59
2019-04-14T07:07:56.933Z,101440.88
2019-04-14T07:10:00.127Z,101439.54
2019-04-14T07:12:07.706Z,101441.14
2019-04-14T07:14:15.193Z,101444.34
2019-04-14T07:16:22.718Z,101441.69
2019-04-14T07:18:30.165Z,101436.83
2019-04-14T07:20:37.813Z,101443.03
2019-04-14T07:22:45.270Z,101448.83
2019-04-14T07:24:53.186Z,101451.64
2019-04-14T07:27:01.134Z,101441.91
2019-04-14T07:29:08.760Z,101439.62
2019-04-14T07:31:49.988Z,101443.31
2019-04-14T07:34:16.240Z,101441.08
2019-04-14T07:36:57.638Z,101436.98
2019-04-14T07:39:24.227Z,101441.56
2019-04-14T07:41:50.422Z,101448.88
2019-04-14T07:44:16.796Z,101447.57
2019-04-14T07:46:44.461Z,101439.94
2019-04-14T07:49:10.947Z,101441.60
2019-04-14T07:54:00.397Z,101445.48
2019-04-14T07:56:26.565Z,101436.13
2019-04-14T07:58:55.888Z,101443.77
2019-04-14T08:01:10.116Z,101451.25
2019-04-14T08:03:54.620Z,101444.49
2019-04-14T08:06:02.328Z,101438.61
2019-04-14T08:08:09.948Z,101444.99
2019-04-14T08:10:17.617Z,101447.80
2019-04-14T08:12:25.308Z,101450.25
2019-04-14T08:14:32.800Z,101448.87
2019-04-14T08:16:40.282Z,101444.70
2019-04-14T08:18:47.859Z,101454.63
2019-04-14T08:20:55.332Z,101451.61
2019-04-14T08:23:03.143Z,101457.66
2019-04-14T08:25:10.976Z,101459.33
2019-04-14T08:27:18.472Z,101450.43
2019-04-14T08:29:27.247Z,101452.42
2019-04-14T08:31:35.633Z,101452.33
2019-04-14T08:33:43.516Z,101448.88
2019-04-14T08:35:51.483Z,101451.95
2019-04-14T08:37:59.294Z,101450.59
2019-04-14T08:40:09.262Z,101440.45
2019-04-14T08:42:38.503Z,101447.14
2019-04-14T08:44:48.018Z,101443.00
2019-04-14T08:47:20.214Z,101443.12
2019-04-14T08:49:51.238Z,101439.17
2019-04-14T08:52:20.327Z,101435.88
2019-04-14T08:54:40.846Z,101446.38
2019-04-14T08:56:57.203Z,101446.22
2019-04-14T08:59:29.767Z,101443.44
2019-04-14T09:01:56.087Z,101443.79
2019-04-14T09:04:21.041Z,101450.75
2019-04-14T09:06:42.456Z,101452.27
2019-04-14T09:09:01.087Z,101446.38
2019-04-14T09:11:09.162Z,101451.78
2019-04-14T09:13:16.769Z,101441.45
2019-04-14T09:15:24.368Z,101440.37
2019-04-14T09:17:32.061Z,101449.86
2019-04-14T09:19:39.559Z,101445.44
2019-04-14T09:21:47.141Z,101448.01
2019-04-14T09:24:21.806Z,101450.88
2019-04-14T09:26:29.300Z,101453.86
2019-04-14T09:28:36.764Z,101457.56
2019-04-14T09:30:44.325Z,101454.03
2019-04-14T09:32:51.966Z,101451.10
2019-04-14T09:34:59.539Z,101442.96
2019-04-14T09:37:07.135Z,101452.52
2019-04-14T09:39:15.022Z,101457.56
2019-04-14T09:41:22.770Z,101455.22
2019-04-14T09:43:30.471Z,101457.05
2019-04-14T09:45:38.006Z,101446.98
2019-04-14T09:47:45.485Z,101452.00
2019-04-14T09:49:53.169Z,101449.33
2019-04-14T09:52:01.486Z,101459.66
2019-04-14T09:54:09.233Z,101454.84
2019-04-14T09:56:16.806Z,101454.03
2019-04-14T09:58:24.494Z,101450.13
2019-04-14T10:00:34.422Z,101462.02
2019-04-14T10:02:42.042Z,101459.38
2019-04-14T10:04:50.278Z,101451.69
2019-04-14T10:06:57.865Z,101451.41
2019-04-14T10:09:06.737Z,101450.16
2019-04-14T10:11:14.321Z,101449.28
2019-04-14T10:13:22.152Z,101459.10
2019-04-14T10:15:29.662Z,101457.58
2019-04-14T10:17:37.209Z,101461.55
2019-04-14T10:19:45.744Z,101447.59
2019-04-14T10:21:54.256Z,101448.16
2019-04-14T10:24:01.845Z,101460.36
2019-04-14T10:26:09.384Z,101455.23
2019-04-14T10:28:16.922Z,101460.84
2019-04-14T10:30:24.554Z,101458.62
2019-04-14T10:32:32.305Z,101446.02
2019-04-14T10:34:39.827Z,101452.30
2019-04-14T10:36:47.523Z,101452.73
2019-04-14T10:38:55.339Z,101443.95
2019-04-14T10:41:02.857Z,101451.10
2019-04-14T10:43:10.326Z,101452.78
2019-04-14T10:45:18.547Z,101440.70
2019-04-14T10:47:26.226Z,101435.97
2019-04-14T10:49:33.823Z,101442.86
2019-04-14T10:51:41.691Z,101437.47
2019-04-14T10:53:50.640Z,101427.80
2019-04-14T10:55:58.273Z,101438.53
2019-04-14T10:58:06.076Z,101436.30
2019-04-14T11:00:16.679Z,101429.89
2019-04-14T11:02:24.363Z,101430.73
2019-04-14T11:04:32.539Z,101432.59
2019-04-14T11:07:04.974Z,101429.95
2019-04-14T11:09:16.896Z,101429.00
2019-04-14T11:11:25.285Z,101430.86
2019-04-14T11:13:33.640Z,101426.83
2019-04-14T11:15:41.619Z,101420.16
2019-04-14T11:17:49.644Z,101423.20
2019-04-14T11:19:57.234Z,101422.18
2019-04-14T11:22:04.820Z,101413.61
2019-04-14T11:24:12.532Z,101415.14
2019-04-14T11:26:20.024Z,101410.63
2019-04-14T11:28:27.780Z,101418.69
2019-04-14T11:30:35.457Z,101414.61
2019-04-14T11:32:52.929Z,101416.56
2019-04-14T11:35:34.440Z,101412.87
2019-04-14T11:38:12.719Z,101409.11
2019-04-14T11:40:23.136Z,101404.28
2019-04-14T11:42:30.735Z,101398.63
2019-04-14T11:44:38.447Z,101402.91
2019-04-14T11:46:46.836Z,101391.89
2019-04-14T11:48:55.512Z,101399.36
2019-04-14T11:51:03.022Z,101397.50
2019-04-14T11:53:10.593Z,101403.58
2019-04-14T11:55:18.034Z,101401.19
2019-04-14T11:57:27.196Z,101396.34
2019-04-14T11:59:55.040Z,101393.58
2019-04-14T12:02:09.277Z,101407.36
2019-04-14T12:04:37.236Z,101398.69
2019-04-14T12:07:20.153Z,101385.83
2019-04-14T12:09:34.034Z,101392.61
2019-04-14T12:11:41.662Z,101396.67
2019-04-14T12:13:49.294Z,101399.32
2019-04-14T12:15:57.376Z,101389.84
2019-04-14T12:18:05.476Z,101380.84
2019-04-14T12:20:15.452Z,101383.50
2019-04-14T12:22:25.046Z,101379.63
2019-04-14T12:24:32.996Z,101380.40
2019-04-14T12:26:41.388Z,101388.43
2019-04-14T12:28:49.672Z,101384.23
2019-04-14T12:30:57.836Z,101378.88
2019-04-14T12:33:06.147Z,101381.08
2019-04-14T12:35:16.298Z,101378.19
2019-04-14T12:37:23.980Z,101378.52
2019-04-14T12:39:31.934Z,101385.26
2019-04-14T12:41:44.700Z,101381.82
2019-04-14T12:44:03.922Z,101380.15
2019-04-14T12:46:42.151Z,101379.55
2019-04-14T12:48:56.937Z,101373.57
2019-04-14T12:51:15.792Z,101372.98
2019-04-14T12:53:23.462Z,101377.95
2019-04-14T12:55:31.001Z,101374.21
2019-04-14T12:57:57.123Z,101370.61
2019-04-14T13:00:09.559Z,101373.88
2019-04-14T13:02:22.683Z,101372.17
2019-04-14T13:04:31.300Z,101371.12
2019-04-14T13:06:38.894Z,101359.31
2019-04-14T13:08:46.308Z,101363.91
2019-04-14T13:10:53.752Z,101364.63
2019-04-14T13:13:01.382Z,101370.88
2019-04-14T13:15:09.118Z,101363.98
2019-04-14T13:17:16.556Z,101360.53
2019-04-14T13:19:24.026Z,101368.16
2019-04-14T13:21:31.506Z,101360.99
2019-04-14T13:23:39.877Z,101363.27
2019-04-14T13:25:47.432Z,101361.97
2019-04-14T13:27:54.859Z,101367.41
2019-04-14T13:30:02.381Z,101370.47
2019-04-14T13:32:10.137Z,101362.77
2019-04-14T13:34:17.680Z,101364.99
2019-04-14T13:36:25.483Z,101353.84
2019-04-14T13:38:32.993Z,101364.45
2019-04-14T13:40:40.500Z,101361.08
2019-04-14T13:42:48.181Z,101351.75
2019-04-14T13:44:55.871Z,101359.63
2019-04-14T13:47:03.372Z,101346.60
2019-04-14T13:49:10.909Z,101350.70
2019-04-14T13:51:18.508Z,101353.52
2019-04-14T13:53:26.255Z,101357.17
2019-04-14T13:55:34.779Z,101349.07
2019-04-14T13:57:42.513Z,101344.09
2019-04-14T13:59:50.176Z,101342.16
2019-04-14T14:01:57.745Z,101343.52
2019-04-14T14:04:05.302Z,101348.77
2019-04-14T14:06:12.809Z,101342.22
2019-04-14T14:08:20.506Z,101338.23
2019-04-14T14:10:28.972Z,101348.92
2019-04-14T14:13:04.468Z,101337.22
2019-04-14T14:15:29.245Z,101344.48
2019-04-14T14:17:52.494Z,101344.06
2019-04-14T14:20:28.030Z,101336.91
2019-04-14T14:22:59.522Z,101345.19
2019-04-14T14:25:25.507Z,101338.18
2019-04-14T14:27:33.055Z,101341.73
2019-04-14T14:29:40.676Z,101333.58
2019-04-14T14:31:48.507Z,101343.48
2019-04-14T14:33:55.993Z,101336.08
2019-04-14T14:36:04.480Z,101340.91
2019-04-14T14:38:12.071Z,101340.80
2019-04-14T14:40:19.781Z,101341.73
2019-04-14T14:42:27.584Z,101335.27
2019-04-14T14:44:46.092Z,101333.95
2019-04-14T14:47:05.131Z,101342.75
2019-04-14T14:49:40.858Z,101339.61
2019-04-14T14:52:16.181Z,101336.75
2019-04-14T14:54:23.922Z,101337.19
2019-04-14T14:56:31.484Z,101336.27
2019-04-14T14:58:39.010Z,101337.42
2019-04-14T15:00:46.451Z,101341.16
2019-04-14T15:02:54.327Z,101333.83
2019-04-14T15:05:01.892Z,101343.13
2019-04-14T15:07:09.411Z,101333.27
2019-04-14T15:09:20.026Z,101338.20
2019-04-14T15:11:27.482Z,101343.50
2019-04-14T15:13:36.421Z,101339.13
2019-04-14T15:15:44.213Z,101345.67
2019-04-14T15:17:51.758Z,101341.92
2019-04-14T15:19:59.240Z,101339.25
2019-04-14T15:22:06.888Z,101341.17
2019-04-14T15:24:14.754Z,101348.73
2019-04-14T15:26:22.341Z,101336.83
2019-04-14T15:28:29.941Z,101336.66
2019-04-14T15:30:37.359Z,101349.23
2019-04-14T15:32:44.781Z,101338.94
2019-04-14T15:34:52.198Z,101337.77
2019-04-14T15:36:59.796Z,101338.72
2019-04-14T15:39:10.038Z,101341.92
2019-04-14T15:41:17.704Z,101343.09
2019-04-14T15:43:25.139Z,101341.89
2019-04-14T15:45:32.728Z,101335.77
2019-04-14T15:47:41.244Z,101341.05
2019-04-14T15:49:48.682Z,101344.23
2019-04-14T15:51:59.217Z,101350.27
2019-04-14T15:54:06.712Z,101348.86
2019-04-14T15:56:23.140Z,101338.97
2019-04-14T15:58:42.836Z,101351.25
2019-04-14T16:01:15.289Z,101343.31
2019-04-14T16:03:46.216Z,101348.75
2019-04-14T16:06:27.715Z,101348.41
2019-04-14T16:08:51.413Z,101341.94
2019-04-14T16:11:06.867Z,101351.14
2019-04-14T16:13:36.570Z,101350.29
2019-04-14T16:15:50.547Z,101355.69
2019-04-14T16:18:13.739Z,101349.11
2019-04-14T16:20:25.145Z,101358.30
2019-04-14T16:22:33.135Z,101353.92
2019-04-14T16:24:40.878Z,101350.95
2019-04-14T16:26:56.487Z,101356.49
2019-04-14T16:29:13.047Z,101355.17
2019-04-14T16:31:48.539Z,101355.11
2019-04-14T16:34:15.113Z,101359.06
2019-04-14T16:36:23.062Z,101365.92
2019-04-14T16:38:30.786Z,101362.63
2019-04-14T16:40:38.872Z,101366.31
2019-04-14T16:42:46.314Z,101366.03
2019-04-14T16:44:54.456Z,101370.14
2019-04-14T16:47:02.343Z,101366.28
2019-04-14T16:49:10.994Z,101369.58
2019-04-14T16:51:27.990Z,101371.75
2019-04-14T16:53:37.638Z,101379.86
2019-04-14T16:56:07.069Z,101382.42
2019-04-14T16:58:36.423Z,101379.69
2019-04-14T17:00:46.421Z,101380.48
2019-04-14T17:02:53.847Z,101386.00
2019-04-14T17:05:01.559Z,101389.06
2019-04-14T17:07:09.248Z,101387.64
2019-04-14T17:09:17.310Z,101388.72
2019-04-14T17:11:24.997Z,101388.44
2019-04-14T17:13:35.201Z,101400.20
2019-04-14T17:16:00.008Z,101400.44
2019-04-14T17:18:26.350Z,101406.13
2019-04-14T17:20:52.502Z,101406.59
2019-04-14T17:23:15.200Z,101407.17
2019-04-14T17:25:28.378Z,101405.82
2019-04-14T17:27:53.249Z,101406.94
2019-04-14T17:30:25.623Z,101411.66
2019-04-14T17:32:54.686Z,101411.75
2019-04-14T17:35:19.535Z,101418.30
2019-04-14T17:37:49.947Z,101416.13
2019-04-14T17:40:07.095Z,101425.62
2019-04-14T17:42:21.993Z,101429.14
2019-04-14T17:44:43.280Z,101428.25
2019-04-14T17:47:01.593Z,101425.91
2019-04-14T17:49:26.734Z,101421.91
2019-04-14T17:51:42.232Z,101429.73
2019-04-14T17:53:51.642Z,101436.92
2019-04-14T17:56:26.755Z,101434.53
2019-04-14T17:58:40.750Z,101445.41
2019-04-14T18:01:15.273Z,101439.67
2019-04-14T18:03:45.187Z,101449.65
2019-04-14T18:05:56.217Z,101450.66
2019-04-14T18:08:22.933Z,101453.30
2019-04-14T18:10:52.710Z,101453.23
2019-04-14T18:13:18.953Z,101465.78
2019-04-14T18:15:43.212Z,101457.37
2019-04-14T18:18:08.506Z,101466.40
2019-04-14T18:20:38.951Z,101469.03
2019-04-14T18:22:46.544Z,101468.42
2019-04-14T18:24:54.131Z,101467.76
2019-04-14T18:27:01.639Z,101476.94
2019-04-14T18:29:31.606Z,101476.28
2019-04-14T18:31:48.618Z,101472.87
2019-04-14T18:34:14.993Z,101475.69
2019-04-14T18:36:39.112Z,101479.95
2019-04-14T18:39:04.139Z,101482.20
2019-04-14T18:41:29.238Z,101492.34
2019-04-14T18:43:59.476Z,101493.88
2019-04-14T18:46:13.799Z,101488.23
2019-04-14T18:48:42.807Z,101489.84
2019-04-14T18:51:07.749Z,101488.19
2019-04-14T18:53:27.072Z,101495.53
2019-04-14T18:56:06.028Z,101499.23
2019-04-14T18:58:41.437Z,101499.16
2019-04-14T19:00:55.735Z,101501.66
2019-04-14T19:03:03.725Z,101497.88
2019-04-14T19:05:13.165Z,101503.14
2019-04-14T19:07:20.669Z,101505.14
2019-04-14T19:09:28.391Z,101499.80
2019-04-14T19:11:55.247Z,101511.53
2019-04-14T19:14:04.963Z,101509.48
2019-04-14T19:16:16.220Z,101508.14
2019-04-14T19:18:30.772Z,101516.44
2019-04-14T19:20:40.255Z,101509.03
2019-04-14T19:22:47.833Z,101518.60
2019-04-14T19:25:07.248Z,101514.55
2019-04-14T19:27:04.993Z,101518.70
2019-04-14T19:29:12.578Z,101514.27
2019-04-14T19:31:20.522Z,101518.44
2019-04-14T19:33:28.415Z,101515.35
2019-04-14T19:35:37.380Z,101522.56
2019-04-14T19:37:45.467Z,101525.28
2019-04-14T19:39:53.117Z,101521.87
2019-04-14T19:42:00.882Z,101523.02
2019-04-14T19:44:08.775Z,101523.38
2019-04-14T19:46:16.422Z,101527.70
2019-04-14T19:48:23.983Z,101520.22
2019-04-14T19:50:31.544Z,101518.91
2019-04-14T19:52:39.213Z,101522.75
2019-04-14T19:54:46.726Z,101524.83
2019-04-14T19:56:54.141Z,101532.97
2019-04-14T19:59:01.677Z,101527.80
2019-04-14T20:01:10.387Z,101532.57
2019-04-14T20:03:18.051Z,101534.34
2019-04-14T20:05:25.921Z,101536.52
2019-04-14T20:07:33.536Z,101539.36
2019-04-14T20:09:41.310Z,101537.41
2019-04-14T20:11:48.839Z,101540.77
2019-04-14T20:13:56.464Z,101549.23
2019-04-14T20:16:14.863Z,101544.86
2019-04-14T20:18:28.651Z,101557.39
2019-04-14T20:20:54.800Z,101549.30
2019-04-14T20:23:21.714Z,101545.11
2019-04-14T20:25:51.236Z,101556.63
2019-04-14T20:28:26.822Z,101555.71
2019-04-14T20:30:38.752Z,101562.97
2019-04-14T20:32:46.352Z,101560.17
2019-04-14T20:34:54.148Z,101559.25
2019-04-14T20:37:01.969Z,101567.02
2019-04-14T20:39:15.891Z,101565.02
2019-04-14T20:41:23.602Z,101573.10
2019-04-14T20:43:31.282Z,101568.30
2019-04-14T20:45:38.857Z,101570.88
2019-04-14T20:47:46.671Z,101580.42
2019-04-14T20:49:54.520Z,101583.53
2019-04-14T20:52:02.909Z,101590.09
2019-04-14T20:54:10.487Z,101585.56
2019-04-14T20:56:18.158Z,101581.47
2019-04-14T20:58:26.439Z,101582.51
2019-04-14T21:00:34.654Z,101588.48
2019-04-14T21:03:03.710Z,101582.03
2019-04-14T21:05:23.975Z,101586.45
2019-04-14T21:08:02.573Z,101590.37
2019-04-14T21:10:19.646Z,101581.28
2019-04-14T21:12:44.737Z,101583.84
2019-04-14T21:15:20.224Z,101591.34
2019-04-14T21:17:32.736Z,101591.59
2019-04-14T21:19:54.670Z,101589.30
2019-04-14T21:22:27.890Z,101590.14
2019-04-14T21:24:45.962Z,101589.17
2019-04-14T21:26:58.981Z,101593.21
2019-04-14T21:29:28.258Z,101595.30
2019-04-14T21:31:43.465Z,101593.95
2019-04-14T21:34:09.947Z,101595.28
2019-04-14T21:36:36.394Z,101602.80
2019-04-14T21:39:03.841Z,101597.84
2019-04-14T21:41:15.447Z,101595.92
2019-04-14T21:43:23.107Z,101601.05
2019-04-14T21:45:30.924Z,101603.91
2019-04-14T21:47:38.778Z,101613.16
2019-04-14T21:49:46.260Z,101609.22
2019-04-14T21:52:04.524Z,101619.03
2019-04-14T21:54:11.938Z,101613.52
2019-04-14T21:56:19.732Z,101611.45
2019-04-14T21:58:55.051Z,101619.05
2019-04-14T22:01:55.135Z,101619.99
2019-04-14T22:04:21.356Z,101615.56
2019-04-14T22:06:35.206Z,101621.56
2019-04-14T22:08:47.044Z,101627.93
2019-04-14T22:10:56.401Z,101626.39
2019-04-14T22:13:03.995Z,101625.76
2019-04-14T22:15:14.578Z,101630.08
2019-04-14T22:17:22.076Z,101629.86
2019-04-14T22:19:30.460Z,101622.71
2019-04-14T22:21:37.897Z,101632.72
2019-04-14T22:23:45.367Z,101630.37
2019-04-14T22:25:52.850Z,101633.54
2019-04-14T22:28:00.360Z,101638.05
2019-04-14T22:30:11.087Z,101644.58
2019-04-14T22:32:18.537Z,101636.33
2019-04-14T22:34:25.994Z,101637.47
2019-04-14T22:36:34.115Z,101643.33
2019-04-14T22:38:41.484Z,101636.95
2019-04-14T22:40:48.902Z,101642.81
2019-04-14T22:42:56.408Z,101636.97
2019-04-14T22:45:03.993Z,101635.52
2019-04-14T22:47:11.450Z,101632.09
2019-04-14T22:49:18.808Z,101647.27
2019-04-14T22:51:26.246Z,101637.02
2019-04-14T22:53:33.640Z,101641.88
2019-04-14T22:55:41.001Z,101642.55
2019-04-14T22:57:48.396Z,101639.02
2019-04-14T22:59:55.769Z,101642.40
2019-04-14T23:02:09.184Z,101641.23
2019-04-14T23:04:38.369Z,101644.53
2019-04-14T23:07:03.374Z,101642.61
2019-04-14T23:09:21.458Z,101649.55
2019-04-14T23:11:38.654Z,101642.83
2019-04-14T23:14:10.616Z,101645.91
2019-04-14T23:16:26.528Z,101642.11
2019-04-14T23:18:56.061Z,101647.45
2019-04-14T23:21:22.311Z,101643.98
2019-04-14T23:23:54.341Z,101651.50
2019-04-14T23:26:01.901Z,101641.13
2019-04-14T23:28:09.278Z,101646.27
2019-04-14T23:30:16.950Z,101646.61
2019-04-14T23:32:24.392Z,101637.78
2019-04-14T23:34:31.796Z,101644.91
2019-04-14T23:36:39.392Z,101647.52
2019-04-14T23:38:46.816Z,101654.62
2019-04-14T23:40:54.277Z,101651.04
2019-04-14T23:43:01.631Z,101653.70
2019-04-14T23:45:09.231Z,101655.58
2019-04-14T23:47:16.679Z,101659.55
2019-04-14T23:49:24.098Z,101659.80
2019-04-14T23:51:31.469Z,101659.89
2019-04-14T23:53:38.850Z,101655.48
2019-04-14T23:55:46.246Z,101653.76
2019-04-14T23:57:53.685Z,101662.67
